sensor_id;sensor_type;location;lat;lon;timestamp;P1;durP1;ratioP1;P2;durP2;ratioP2
76610;SDS011;65503;48.534;9.062;2024-03-23T00:55:38;7.25;;;3.40;;
76610;SDS011;65503;48.534;9.062;2024-03-23T00:58:03;8.05;;;4.22;;
76610;SDS011;65503;48.534;9.062;2024-03-23T01:00:29;10.60;;;5.43;;
76610;SDS011;65503;48.534;9.062;2024-03-23T01:02:54;9.65;;;5.50;;
76610;SDS011;65503;48.534;9.062;2024-03-23T01:05:20;11.18;;;5.20;;
76610;SDS011;65503;48.534;9.062;2024-03-23T01:07:46;11.43;;;5.30;;
76610;SDS011;65503;48.534;9.062;2024-03-23T01:10:11;13.05;;;5.40;;
76610;SDS011;65503;48.534;9.062;2024-03-23T01:12:37;9.02;;;5.18;;
76610;SDS011;65503;48.534;9.062;2024-03-23T01:15:02;12.40;;;5.60;;
76610;SDS011;65503;48.534;9.062;2024-03-23T01:17:28;9.43;;;5.63;;
76610;SDS011;65503;48.534;9.062;2024-03-23T01:19:54;10.65;;;6.20;;
76610;SDS011;65503;48.534;9.062;2024-03-23T01:22:19;14.02;;;5.90;;
76610;SDS011;65503;48.534;9.062;2024-03-23T01:24:45;9.93;;;4.97;;
76610;SDS011;65503;48.534;9.062;2024-03-23T01:27:10;8.75;;;4.72;;
76610;SDS011;65503;48.534;9.062;2024-03-23T01:29:36;7.50;;;3.35;;
76610;SDS011;65503;48.534;9.062;2024-03-23T01:32:01;10.48;;;5.13;;
76610;SDS011;65503;48.534;9.062;2024-03-23T01:34:27;9.93;;;4.78;;
76610;SDS011;65503;48.534;9.062;2024-03-23T01:36:53;8.07;;;3.80;;
76610;SDS011;65503;48.534;9.062;2024-03-23T01:39:18;10.38;;;2.63;;
76610;SDS011;65503;48.534;9.062;2024-03-23T01:41:44;6.40;;;3.13;;
76610;SDS011;65503;48.534;9.062;2024-03-23T01:44:09;11.23;;;4.97;;
76610;SDS011;65503;48.534;9.062;2024-03-23T01:46:39;9.20;;;4.22;;
76610;SDS011;65503;48.534;9.062;2024-03-23T01:49:06;5.60;;;2.85;;
76610;SDS011;65503;48.534;9.062;2024-03-23T01:51:33;5.97;;;2.65;;
76610;SDS011;65503;48.534;9.062;2024-03-23T01:53:59;5.57;;;2.60;;
76610;SDS011;65503;48.534;9.062;2024-03-23T01:56:28;5.38;;;2.63;;
76610;SDS011;65503;48.534;9.062;2024-03-23T01:58:55;7.38;;;2.60;;
76610;SDS011;65503;48.534;9.062;2024-03-23T02:01:21;5.85;;;2.58;;
76610;SDS011;65503;48.534;9.062;2024-03-23T02:03:47;4.10;;;2.40;;
76610;SDS011;65503;48.534;9.062;2024-03-23T02:06:13;6.20;;;2.50;;
76610;SDS011;65503;48.534;9.062;2024-03-23T02:08:38;5.22;;;2.28;;
76610;SDS011;65503;48.534;9.062;2024-03-23T02:11:05;4.65;;;2.55;;
76610;SDS011;65503;48.534;9.062;2024-03-23T02:13:30;5.03;;;2.83;;
76610;SDS011;65503;48.534;9.062;2024-03-23T02:15:57;7.15;;;3.00;;
76610;SDS011;65503;48.534;9.062;2024-03-23T02:18:22;5.00;;;2.80;;
76610;SDS011;65503;48.534;9.062;2024-03-23T02:20:48;6.43;;;2.70;;
76610;SDS011;65503;48.534;9.062;2024-03-23T02:23:14;6.15;;;2.38;;
76610;SDS011;65503;48.534;9.062;2024-03-23T02:25:46;6.63;;;2.50;;
76610;SDS011;65503;48.534;9.062;2024-03-23T02:28:12;5.25;;;2.60;;
76610;SDS011;65503;48.534;9.062;2024-03-23T02:30:38;6.78;;;2.40;;
76610;SDS011;65503;48.534;9.062;2024-03-23T02:33:03;6.38;;;2.50;;
76610;SDS011;65503;48.534;9.062;2024-03-23T02:35:29;6.38;;;2.58;;
76610;SDS011;65503;48.534;9.062;2024-03-23T02:37:55;6.25;;;2.55;;
76610;SDS011;65503;48.534;9.062;2024-03-23T02:40:25;5.40;;;2.08;;
76610;SDS011;65503;48.534;9.062;2024-03-23T02:42:51;5.15;;;2.17;;
76610;SDS011;65503;48.534;9.062;2024-03-23T02:45:17;4.53;;;2.33;;
76610;SDS011;65503;48.534;9.062;2024-03-23T02:47:43;4.43;;;2.20;;
76610;SDS011;65503;48.534;9.062;2024-03-23T02:50:09;4.30;;;2.28;;
76610;SDS011;65503;48.534;9.062;2024-03-23T02:52:35;4.68;;;2.25;;
76610;SDS011;65503;48.534;9.062;2024-03-23T02:55:01;4.90;;;2.38;;
76610;SDS011;65503;48.534;9.062;2024-03-23T02:57:28;5.53;;;2.03;;
76610;SDS011;65503;48.534;9.062;2024-03-23T02:59:53;6.15;;;2.30;;
76610;SDS011;65503;48.534;9.062;2024-03-23T03:02:19;5.05;;;2.10;;
76610;SDS011;65503;48.534;9.062;2024-03-23T03:04:45;4.70;;;2.10;;
76610;SDS011;65503;48.534;9.062;2024-03-23T03:07:11;4.45;;;1.95;;
76610;SDS011;65503;48.534;9.062;2024-03-23T03:09:37;5.65;;;2.20;;
76610;SDS011;65503;48.534;9.062;2024-03-23T03:12:07;3.70;;;2.00;;
76610;SDS011;65503;48.534;9.062;2024-03-23T03:14:33;5.03;;;2.15;;
76610;SDS011;65503;48.534;9.062;2024-03-23T03:16:59;4.75;;;2.10;;
76610;SDS011;65503;48.534;9.062;2024-03-23T03:19:24;3.60;;;2.05;;
76610;SDS011;65503;48.534;9.062;2024-03-23T03:21:50;4.78;;;2.47;;
76610;SDS011;65503;48.534;9.062;2024-03-23T03:24:15;5.45;;;2.10;;
76610;SDS011;65503;48.534;9.062;2024-03-23T03:26:42;4.68;;;2.00;;
76610;SDS011;65503;48.534;9.062;2024-03-23T03:29:08;6.22;;;2.30;;
76610;SDS011;65503;48.534;9.062;2024-03-23T03:31:33;5.43;;;1.80;;
76610;SDS011;65503;48.534;9.062;2024-03-23T03:33:59;5.07;;;2.05;;
76610;SDS011;65503;48.534;9.062;2024-03-23T03:36:24;4.35;;;2.03;;
76610;SDS011;65503;48.534;9.062;2024-03-23T03:38:50;4.55;;;2.13;;
76610;SDS011;65503;48.534;9.062;2024-03-23T03:41:16;6.85;;;2.40;;
76610;SDS011;65503;48.534;9.062;2024-03-23T03:43:41;7.00;;;3.45;;
76610;SDS011;65503;48.534;9.062;2024-03-23T03:46:07;6.88;;;3.55;;
76610;SDS011;65503;48.534;9.062;2024-03-23T03:48:36;5.82;;;3.00;;
76610;SDS011;65503;48.534;9.062;2024-03-23T03:51:02;6.43;;;3.53;;
76610;SDS011;65503;48.534;9.062;2024-03-23T03:53:28;6.15;;;3.15;;
76610;SDS011;65503;48.534;9.062;2024-03-23T03:55:53;7.13;;;3.10;;
76610;SDS011;65503;48.534;9.062;2024-03-23T03:58:19;7.65;;;3.20;;
76610;SDS011;65503;48.534;9.062;2024-03-23T04:00:45;6.15;;;3.17;;
76610;SDS011;65503;48.534;9.062;2024-03-23T04:03:10;7.25;;;3.00;;
76610;SDS011;65503;48.534;9.062;2024-03-23T04:05:36;5.97;;;2.67;;
76610;SDS011;65503;48.534;9.062;2024-03-23T04:08:01;7.43;;;2.83;;
76610;SDS011;65503;48.534;9.062;2024-03-23T04:10:27;6.45;;;2.92;;
76610;SDS011;65503;48.534;9.062;2024-03-23T04:12:52;6.68;;;3.53;;
76610;SDS011;65503;48.534;9.062;2024-03-23T04:15:19;8.20;;;2.97;;
76610;SDS011;65503;48.534;9.062;2024-03-23T04:17:45;5.55;;;2.53;;
76610;SDS011;65503;48.534;9.062;2024-03-23T04:20:11;5.45;;;2.72;;
76610;SDS011;65503;48.534;9.062;2024-03-23T04:25:05;5.30;;;2.92;;
76610;SDS011;65503;48.534;9.062;2024-03-23T04:27:35;6.32;;;2.97;;
76610;SDS011;65503;48.534;9.062;2024-03-23T04:30:00;5.65;;;2.63;;
76610;SDS011;65503;48.534;9.062;2024-03-23T04:32:27;6.95;;;2.83;;
76610;SDS011;65503;48.534;9.062;2024-03-23T04:34:53;6.80;;;2.65;;
76610;SDS011;65503;48.534;9.062;2024-03-23T04:37:20;7.57;;;2.85;;
76610;SDS011;65503;48.534;9.062;2024-03-23T04:39:46;5.88;;;2.83;;
76610;SDS011;65503;48.534;9.062;2024-03-23T04:42:11;4.70;;;2.47;;
76610;SDS011;65503;48.534;9.062;2024-03-23T04:44:37;6.45;;;3.00;;
76610;SDS011;65503;48.534;9.062;2024-03-23T04:47:02;4.90;;;2.42;;
76610;SDS011;65503;48.534;9.062;2024-03-23T04:49:28;5.00;;;2.50;;
76610;SDS011;65503;48.534;9.062;2024-03-23T04:51:54;5.60;;;2.67;;
76610;SDS011;65503;48.534;9.062;2024-03-23T04:54:19;5.70;;;2.63;;
76610;SDS011;65503;48.534;9.062;2024-03-23T04:56:45;4.32;;;2.35;;
76610;SDS011;65503;48.534;9.062;2024-03-23T04:59:11;5.40;;;2.33;;
76610;SDS011;65503;48.534;9.062;2024-03-23T05:01:36;5.45;;;2.40;;
76610;SDS011;65503;48.534;9.062;2024-03-23T05:04:03;6.28;;;2.72;;
76610;SDS011;65503;48.534;9.062;2024-03-23T05:06:29;6.15;;;2.45;;
76610;SDS011;65503;48.534;9.062;2024-03-23T05:08:55;5.78;;;2.35;;
76610;SDS011;65503;48.534;9.062;2024-03-23T05:11:20;10.30;;;2.40;;
76610;SDS011;65503;48.534;9.062;2024-03-23T05:13:46;6.35;;;2.70;;
76610;SDS011;65503;48.534;9.062;2024-03-23T05:16:11;7.22;;;3.38;;
76610;SDS011;65503;48.534;9.062;2024-03-23T05:18:37;7.93;;;3.35;;
76610;SDS011;65503;48.534;9.062;2024-03-23T05:21:03;6.80;;;3.42;;
76610;SDS011;65503;48.534;9.062;2024-03-23T05:23:29;6.28;;;3.60;;
76610;SDS011;65503;48.534;9.062;2024-03-23T05:25:55;9.13;;;3.67;;
76610;SDS011;65503;48.534;9.062;2024-03-23T05:28:23;6.82;;;3.80;;
76610;SDS011;65503;48.534;9.062;2024-03-23T05:30:52;7.07;;;4.10;;
76610;SDS011;65503;48.534;9.062;2024-03-23T05:33:19;8.13;;;4.00;;
76610;SDS011;65503;48.534;9.062;2024-03-23T05:35:46;12.35;;;4.50;;
76610;SDS011;65503;48.534;9.062;2024-03-23T05:38:15;11.80;;;5.60;;
76610;SDS011;65503;48.534;9.062;2024-03-23T05:40:41;12.90;;;6.20;;
76610;SDS011;65503;48.534;9.062;2024-03-23T05:43:06;10.80;;;5.75;;
76610;SDS011;65503;48.534;9.062;2024-03-23T05:45:32;11.15;;;5.55;;
76610;SDS011;65503;48.534;9.062;2024-03-23T05:47:58;13.20;;;6.53;;
76610;SDS011;65503;48.534;9.062;2024-03-23T05:50:24;14.13;;;5.97;;
76610;SDS011;65503;48.534;9.062;2024-03-23T05:52:49;11.75;;;6.30;;
76610;SDS011;65503;48.534;9.062;2024-03-23T05:55:15;12.05;;;5.57;;
76610;SDS011;65503;48.534;9.062;2024-03-23T05:57:41;9.00;;;4.43;;
76610;SDS011;65503;48.534;9.062;2024-03-23T06:00:07;9.43;;;4.88;;
76610;SDS011;65503;48.534;9.062;2024-03-23T06:02:42;10.05;;;5.43;;
76610;SDS011;65503;48.534;9.062;2024-03-23T06:05:10;10.45;;;5.60;;
76610;SDS011;65503;48.534;9.062;2024-03-23T06:07:37;10.55;;;5.45;;
76610;SDS011;65503;48.534;9.062;2024-03-23T06:10:02;13.07;;;5.93;;
76610;SDS011;65503;48.534;9.062;2024-03-23T06:12:28;11.10;;;5.40;;
76610;SDS011;65503;48.534;9.062;2024-03-23T06:14:54;10.10;;;4.63;;
76610;SDS011;65503;48.534;9.062;2024-03-23T06:17:19;8.10;;;3.72;;
76610;SDS011;65503;48.534;9.062;2024-03-23T06:19:45;7.82;;;3.67;;
76610;SDS011;65503;48.534;9.062;2024-03-23T06:22:11;8.35;;;3.85;;
76610;SDS011;65503;48.534;9.062;2024-03-23T06:24:36;9.30;;;3.88;;
76610;SDS011;65503;48.534;9.062;2024-03-23T06:27:02;10.02;;;4.20;;
76610;SDS011;65503;48.534;9.062;2024-03-23T06:29:27;5.50;;;2.55;;
76610;SDS011;65503;48.534;9.062;2024-03-23T06:31:53;2.38;;;1.33;;
76610;SDS011;65503;48.534;9.062;2024-03-23T06:34:20;3.58;;;1.35;;
76610;SDS011;65503;48.534;9.062;2024-03-23T06:36:46;4.22;;;1.40;;
76610;SDS011;65503;48.534;9.062;2024-03-23T06:39:12;2.47;;;1.13;;
76610;SDS011;65503;48.534;9.062;2024-03-23T06:41:51;4.07;;;1.33;;
76610;SDS011;65503;48.534;9.062;2024-03-23T06:44:18;1.15;;;0.80;;
76610;SDS011;65503;48.534;9.062;2024-03-23T06:46:44;1.80;;;0.95;;
76610;SDS011;65503;48.534;9.062;2024-03-23T06:49:10;2.08;;;0.90;;
76610;SDS011;65503;48.534;9.062;2024-03-23T06:51:36;1.67;;;1.02;;
76610;SDS011;65503;48.534;9.062;2024-03-23T06:54:03;2.03;;;1.08;;
76610;SDS011;65503;48.534;9.062;2024-03-23T06:56:29;1.67;;;0.80;;
76610;SDS011;65503;48.534;9.062;2024-03-23T06:58:55;2.10;;;0.70;;
76610;SDS011;65503;48.534;9.062;2024-03-23T07:01:21;2.80;;;0.82;;
76610;SDS011;65503;48.534;9.062;2024-03-23T07:03:47;1.88;;;0.90;;
76610;SDS011;65503;48.534;9.062;2024-03-23T07:06:13;1.85;;;1.02;;
76610;SDS011;65503;48.534;9.062;2024-03-23T07:08:38;1.67;;;0.90;;
76610;SDS011;65503;48.534;9.062;2024-03-23T07:11:04;1.20;;;0.70;;
76610;SDS011;65503;48.534;9.062;2024-03-23T07:13:30;1.40;;;0.80;;
76610;SDS011;65503;48.534;9.062;2024-03-23T07:15:56;2.22;;;0.90;;
76610;SDS011;65503;48.534;9.062;2024-03-23T07:18:22;2.72;;;0.80;;
76610;SDS011;65503;48.534;9.062;2024-03-23T07:20:52;3.22;;;1.00;;
76610;SDS011;65503;48.534;9.062;2024-03-23T07:23:24;1.13;;;0.65;;
76610;SDS011;65503;48.534;9.062;2024-03-23T07:25:57;1.13;;;0.60;;
76610;SDS011;65503;48.534;9.062;2024-03-23T07:28:22;0.90;;;0.60;;
76610;SDS011;65503;48.534;9.062;2024-03-23T07:30:48;0.77;;;0.65;;
76610;SDS011;65503;48.534;9.062;2024-03-23T07:33:23;1.13;;;0.82;;
76610;SDS011;65503;48.534;9.062;2024-03-23T07:35:49;0.90;;;0.80;;
76610;SDS011;65503;48.534;9.062;2024-03-23T07:38:14;2.97;;;0.93;;
76610;SDS011;65503;48.534;9.062;2024-03-23T07:40:40;2.80;;;0.73;;
76610;SDS011;65503;48.534;9.062;2024-03-23T07:43:05;1.30;;;0.90;;
76610;SDS011;65503;48.534;9.062;2024-03-23T07:45:31;1.27;;;0.80;;
76610;SDS011;65503;48.534;9.062;2024-03-23T07:47:56;2.22;;;1.20;;
76610;SDS011;65503;48.534;9.062;2024-03-23T07:50:22;1.25;;;0.77;;
76610;SDS011;65503;48.534;9.062;2024-03-23T07:52:47;0.57;;;0.55;;
76610;SDS011;65503;48.534;9.062;2024-03-23T07:55:13;1.40;;;0.98;;
76610;SDS011;65503;48.534;9.062;2024-03-23T07:57:39;0.90;;;0.80;;
76610;SDS011;65503;48.534;9.062;2024-03-23T08:00:05;0.50;;;0.50;;
76610;SDS011;65503;48.534;9.062;2024-03-23T08:02:31;0.63;;;0.38;;
76610;SDS011;65503;48.534;9.062;2024-03-23T08:04:57;0.88;;;0.60;;
76610;SDS011;65503;48.534;9.062;2024-03-23T08:07:24;1.15;;;0.60;;
76610;SDS011;65503;48.534;9.062;2024-03-23T08:09:50;0.50;;;0.50;;
76610;SDS011;65503;48.534;9.062;2024-03-23T08:12:16;1.02;;;0.70;;
76610;SDS011;65503;48.534;9.062;2024-03-23T08:14:41;1.45;;;0.82;;
76610;SDS011;65503;48.534;9.062;2024-03-23T08:17:07;1.10;;;0.80;;
76610;SDS011;65503;48.534;9.062;2024-03-23T08:19:33;2.05;;;0.80;;
76610;SDS011;65503;48.534;9.062;2024-03-23T08:21:58;2.35;;;0.80;;
76610;SDS011;65503;48.534;9.062;2024-03-23T08:24:24;3.55;;;0.88;;
76610;SDS011;65503;48.534;9.062;2024-03-23T08:26:50;2.50;;;0.90;;
76610;SDS011;65503;48.534;9.062;2024-03-23T08:29:15;2.70;;;0.90;;
76610;SDS011;65503;48.534;9.062;2024-03-23T08:31:41;1.73;;;0.98;;
76610;SDS011;65503;48.534;9.062;2024-03-23T08:34:06;3.72;;;1.00;;
76610;SDS011;65503;48.534;9.062;2024-03-23T08:36:32;3.50;;;1.10;;
76610;SDS011;65503;48.534;9.062;2024-03-23T08:38:57;4.85;;;1.13;;
76610;SDS011;65503;48.534;9.062;2024-03-23T08:41:23;3.85;;;1.15;;
76610;SDS011;65503;48.534;9.062;2024-03-23T08:43:48;2.75;;;1.15;;
76610;SDS011;65503;48.534;9.062;2024-03-23T08:46:14;5.10;;;1.48;;
76610;SDS011;65503;48.534;9.062;2024-03-23T08:48:41;4.50;;;1.65;;
76610;SDS011;65503;48.534;9.062;2024-03-23T08:51:09;3.88;;;1.40;;
76610;SDS011;65503;48.534;9.062;2024-03-23T08:53:36;5.47;;;1.73;;
76610;SDS011;65503;48.534;9.062;2024-03-23T08:56:02;4.43;;;1.73;;
76610;SDS011;65503;48.534;9.062;2024-03-23T08:58:29;4.85;;;1.95;;
76610;SDS011;65503;48.534;9.062;2024-03-23T09:00:56;5.22;;;2.03;;
76610;SDS011;65503;48.534;9.062;2024-03-23T09:03:28;5.28;;;1.63;;
76610;SDS011;65503;48.534;9.062;2024-03-23T09:05:54;4.13;;;2.05;;
76610;SDS011;65503;48.534;9.062;2024-03-23T09:08:20;6.55;;;1.88;;
76610;SDS011;65503;48.534;9.062;2024-03-23T09:10:46;5.45;;;1.92;;
76610;SDS011;65503;48.534;9.062;2024-03-23T09:13:12;8.40;;;2.22;;
76610;SDS011;65503;48.534;9.062;2024-03-23T09:15:45;9.35;;;2.47;;
76610;SDS011;65503;48.534;9.062;2024-03-23T09:18:15;7.18;;;2.30;;
76610;SDS011;65503;48.534;9.062;2024-03-23T09:20:41;8.88;;;2.40;;
76610;SDS011;65503;48.534;9.062;2024-03-23T09:23:07;10.15;;;3.25;;
76610;SDS011;65503;48.534;9.062;2024-03-23T09:25:35;5.75;;;2.72;;
76610;SDS011;65503;48.534;9.062;2024-03-23T09:28:01;7.97;;;2.75;;
76610;SDS011;65503;48.534;9.062;2024-03-23T09:30:27;8.80;;;3.03;;
76610;SDS011;65503;48.534;9.062;2024-03-23T09:32:52;10.23;;;3.03;;
76610;SDS011;65503;48.534;9.062;2024-03-23T09:35:18;6.60;;;2.83;;
76610;SDS011;65503;48.534;9.062;2024-03-23T09:37:44;7.00;;;2.40;;
76610;SDS011;65503;48.534;9.062;2024-03-23T09:40:10;5.93;;;2.65;;
76610;SDS011;65503;48.534;9.062;2024-03-23T09:42:39;5.68;;;2.53;;
76610;SDS011;65503;48.534;9.062;2024-03-23T09:45:06;9.15;;;2.90;;
76610;SDS011;65503;48.534;9.062;2024-03-23T09:47:35;5.65;;;2.25;;
76610;SDS011;65503;48.534;9.062;2024-03-23T09:50:01;6.50;;;2.13;;
76610;SDS011;65503;48.534;9.062;2024-03-23T09:52:27;7.25;;;2.33;;
76610;SDS011;65503;48.534;9.062;2024-03-23T09:54:52;5.97;;;2.15;;
76610;SDS011;65503;48.534;9.062;2024-03-23T09:57:18;3.60;;;1.80;;
76610;SDS011;65503;48.534;9.062;2024-03-23T09:59:44;4.30;;;2.10;;
76610;SDS011;65503;48.534;9.062;2024-03-23T10:02:09;5.80;;;2.30;;
76610;SDS011;65503;48.534;9.062;2024-03-23T10:04:40;6.05;;;2.30;;
76610;SDS011;65503;48.534;9.062;2024-03-23T10:07:13;4.97;;;2.30;;
76610;SDS011;65503;48.534;9.062;2024-03-23T10:09:48;9.52;;;2.85;;
76610;SDS011;65503;48.534;9.062;2024-03-23T10:12:16;10.43;;;3.08;;
76610;SDS011;65503;48.534;9.062;2024-03-23T10:14:43;5.88;;;2.20;;
76610;SDS011;65503;48.534;9.062;2024-03-23T10:17:13;4.32;;;1.98;;
76610;SDS011;65503;48.534;9.062;2024-03-23T10:19:50;7.07;;;2.30;;
76610;SDS011;65503;48.534;9.062;2024-03-23T10:22:20;6.82;;;2.40;;
76610;SDS011;65503;48.534;9.062;2024-03-23T10:24:47;6.03;;;2.90;;
76610;SDS011;65503;48.534;9.062;2024-03-23T10:27:20;8.05;;;2.83;;
76610;SDS011;65503;48.534;9.062;2024-03-23T10:29:49;8.77;;;2.90;;
76610;SDS011;65503;48.534;9.062;2024-03-23T10:32:16;7.78;;;2.90;;
76610;SDS011;65503;48.534;9.062;2024-03-23T10:34:43;7.53;;;2.58;;
76610;SDS011;65503;48.534;9.062;2024-03-23T10:37:09;5.75;;;2.20;;
76610;SDS011;65503;48.534;9.062;2024-03-23T10:39:36;8.50;;;2.80;;
76610;SDS011;65503;48.534;9.062;2024-03-23T10:42:03;6.47;;;2.30;;
76610;SDS011;65503;48.534;9.062;2024-03-23T10:44:30;6.38;;;2.60;;
76610;SDS011;65503;48.534;9.062;2024-03-23T10:47:00;9.20;;;2.72;;
76610;SDS011;65503;48.534;9.062;2024-03-23T10:49:30;12.10;;;3.05;;
76610;SDS011;65503;48.534;9.062;2024-03-23T10:51:59;8.25;;;2.75;;
76610;SDS011;65503;48.534;9.062;2024-03-23T10:54:26;12.15;;;3.58;;
76610;SDS011;65503;48.534;9.062;2024-03-23T10:56:59;7.55;;;2.67;;
76610;SDS011;65503;48.534;9.062;2024-03-23T10:59:31;5.72;;;2.10;;
76610;SDS011;65503;48.534;9.062;2024-03-23T11:01:59;6.22;;;2.92;;
76610;SDS011;65503;48.534;9.062;2024-03-23T11:04:35;8.10;;;2.17;;
76610;SDS011;65503;48.534;9.062;2024-03-23T11:07:48;4.95;;;1.50;;
76610;SDS011;65503;48.534;9.062;2024-03-23T11:09:56;4.63;;;1.60;;
76610;SDS011;65503;48.534;9.062;2024-03-23T11:14:52;2.63;;;1.40;;
76610;SDS011;65503;48.534;9.062;2024-03-23T11:19:52;5.10;;;1.23;;
76610;SDS011;65503;48.534;9.062;2024-03-23T11:25:12;5.07;;;1.50;;
76610;SDS011;65503;48.534;9.062;2024-03-23T11:27:37;6.03;;;1.52;;
76610;SDS011;65503;48.534;9.062;2024-03-23T11:30:12;9.70;;;1.60;;
76610;SDS011;65503;48.534;9.062;2024-03-23T11:32:39;8.02;;;1.50;;
76610;SDS011;65503;48.534;9.062;2024-03-23T11:35:05;7.55;;;1.52;;
76610;SDS011;65503;48.534;9.062;2024-03-23T11:37:31;3.70;;;1.45;;
76610;SDS011;65503;48.534;9.062;2024-03-23T11:39:57;6.43;;;1.67;;
76610;SDS011;65503;48.534;9.062;2024-03-23T11:42:23;7.60;;;1.70;;
76610;SDS011;65503;48.534;9.062;2024-03-23T11:44:48;2.47;;;1.13;;
76610;SDS011;65503;48.534;9.062;2024-03-23T11:47:14;4.78;;;1.33;;
76610;SDS011;65503;48.534;9.062;2024-03-23T11:49:39;7.03;;;1.95;;
76610;SDS011;65503;48.534;9.062;2024-03-23T11:52:08;5.70;;;1.67;;
76610;SDS011;65503;48.534;9.062;2024-03-23T11:54:33;5.65;;;1.33;;
76610;SDS011;65503;48.534;9.062;2024-03-23T11:57:00;6.35;;;1.50;;
76610;SDS011;65503;48.534;9.062;2024-03-23T11:59:33;6.88;;;1.55;;
76610;SDS011;65503;48.534;9.062;2024-03-23T12:02:01;5.68;;;1.63;;
76610;SDS011;65503;48.534;9.062;2024-03-23T12:04:31;9.00;;;1.77;;
76610;SDS011;65503;48.534;9.062;2024-03-23T12:07:13;9.77;;;1.63;;
76610;SDS011;65503;48.534;9.062;2024-03-23T12:09:39;8.80;;;1.85;;
76610;SDS011;65503;48.534;9.062;2024-03-23T12:12:08;4.80;;;1.40;;
76610;SDS011;65503;48.534;9.062;2024-03-23T12:14:35;8.57;;;1.95;;
76610;SDS011;65503;48.534;9.062;2024-03-23T12:17:11;7.65;;;2.05;;
76610;SDS011;65503;48.534;9.062;2024-03-23T12:19:40;7.18;;;2.00;;
76610;SDS011;65503;48.534;9.062;2024-03-23T12:22:10;6.00;;;1.90;;
76610;SDS011;65503;48.534;9.062;2024-03-23T12:24:35;6.95;;;2.10;;
76610;SDS011;65503;48.534;9.062;2024-03-23T12:27:02;7.57;;;1.92;;
76610;SDS011;65503;48.534;9.062;2024-03-23T12:29:31;8.52;;;2.30;;
76610;SDS011;65503;48.534;9.062;2024-03-23T12:32:00;5.68;;;1.85;;
76610;SDS011;65503;48.534;9.062;2024-03-23T12:34:27;8.25;;;1.80;;
76610;SDS011;65503;48.534;9.062;2024-03-23T12:36:53;6.22;;;1.80;;
76610;SDS011;65503;48.534;9.062;2024-03-23T12:39:20;4.57;;;1.85;;
76610;SDS011;65503;48.534;9.062;2024-03-23T12:41:49;8.77;;;2.20;;
76610;SDS011;65503;48.534;9.062;2024-03-23T12:44:15;4.53;;;1.77;;
76610;SDS011;65503;48.534;9.062;2024-03-23T12:46:41;6.13;;;1.70;;
76610;SDS011;65503;48.534;9.062;2024-03-23T12:49:07;10.00;;;1.85;;
76610;SDS011;65503;48.534;9.062;2024-03-23T12:51:33;4.85;;;1.80;;
76610;SDS011;65503;48.534;9.062;2024-03-23T12:53:59;5.45;;;1.92;;
76610;SDS011;65503;48.534;9.062;2024-03-23T12:56:24;5.75;;;1.60;;
76610;SDS011;65503;48.534;9.062;2024-03-23T12:58:50;3.72;;;1.60;;
76610;SDS011;65503;48.534;9.062;2024-03-23T13:01:19;4.75;;;1.70;;
76610;SDS011;65503;48.534;9.062;2024-03-23T13:03:48;1.92;;;1.20;;
76610;SDS011;65503;48.534;9.062;2024-03-23T13:06:14;3.70;;;1.65;;
76610;SDS011;65503;48.534;9.062;2024-03-23T13:08:40;3.88;;;1.23;;
76610;SDS011;65503;48.534;9.062;2024-03-23T13:11:07;6.82;;;1.55;;
76610;SDS011;65503;48.534;9.062;2024-03-23T13:13:34;5.78;;;1.50;;
76610;SDS011;65503;48.534;9.062;2024-03-23T13:16:00;4.65;;;1.60;;
76610;SDS011;65503;48.534;9.062;2024-03-23T13:18:25;3.70;;;1.52;;
76610;SDS011;65503;48.534;9.062;2024-03-23T13:20:51;2.70;;;1.10;;
76610;SDS011;65503;48.534;9.062;2024-03-23T13:23:17;3.38;;;1.10;;
76610;SDS011;65503;48.534;9.062;2024-03-23T13:25:53;3.13;;;1.10;;
76610;SDS011;65503;48.534;9.062;2024-03-23T13:28:19;1.70;;;0.88;;
76610;SDS011;65503;48.534;9.062;2024-03-23T13:30:55;4.25;;;1.10;;
76610;SDS011;65503;48.534;9.062;2024-03-23T13:33:21;3.55;;;1.10;;
76610;SDS011;65503;48.534;9.062;2024-03-23T13:35:51;2.90;;;1.30;;
76610;SDS011;65503;48.534;9.062;2024-03-23T13:38:17;3.85;;;1.33;;
76610;SDS011;65503;48.534;9.062;2024-03-23T13:43:18;2.97;;;1.00;;
76610;SDS011;65503;48.534;9.062;2024-03-23T13:45:45;3.08;;;1.33;;
76610;SDS011;65503;48.534;9.062;2024-03-23T13:48:12;5.53;;;1.30;;
76610;SDS011;65503;48.534;9.062;2024-03-23T13:50:38;8.68;;;1.58;;
76610;SDS011;65503;48.534;9.062;2024-03-23T13:53:03;8.60;;;1.55;;
76610;SDS011;65503;48.534;9.062;2024-03-23T13:55:29;5.78;;;1.30;;
76610;SDS011;65503;48.534;9.062;2024-03-23T13:57:54;4.63;;;1.17;;
76610;SDS011;65503;48.534;9.062;2024-03-23T14:00:20;3.42;;;0.85;;
76610;SDS011;65503;48.534;9.062;2024-03-23T14:02:46;2.47;;;1.00;;
76610;SDS011;65503;48.534;9.062;2024-03-23T14:05:11;5.00;;;1.30;;
76610;SDS011;65503;48.534;9.062;2024-03-23T14:07:37;5.05;;;1.23;;
76610;SDS011;65503;48.534;9.062;2024-03-23T14:10:03;2.05;;;0.90;;
76610;SDS011;65503;48.534;9.062;2024-03-23T14:12:49;3.25;;;0.98;;
76610;SDS011;65503;48.534;9.062;2024-03-23T14:15:44;3.10;;;1.10;;
76610;SDS011;65503;48.534;9.062;2024-03-23T14:18:09;5.07;;;1.20;;
76610;SDS011;65503;48.534;9.062;2024-03-23T14:20:35;3.47;;;1.15;;
76610;SDS011;65503;48.534;9.062;2024-03-23T14:23:01;9.15;;;1.33;;
76610;SDS011;65503;48.534;9.062;2024-03-23T14:25:26;3.20;;;0.73;;
76610;SDS011;65503;48.534;9.062;2024-03-23T14:27:52;3.50;;;1.15;;
76610;SDS011;65503;48.534;9.062;2024-03-23T14:30:18;2.65;;;1.02;;
76610;SDS011;65503;48.534;9.062;2024-03-23T14:32:43;4.97;;;1.08;;
76610;SDS011;65503;48.534;9.062;2024-03-23T14:35:09;5.00;;;0.95;;
76610;SDS011;65503;48.534;9.062;2024-03-23T14:37:38;7.45;;;1.35;;
76610;SDS011;65503;48.534;9.062;2024-03-23T14:40:07;2.28;;;1.00;;
76610;SDS011;65503;48.534;9.062;2024-03-23T14:42:33;4.97;;;1.30;;
76610;SDS011;65503;48.534;9.062;2024-03-23T14:44:59;4.20;;;1.13;;
76610;SDS011;65503;48.534;9.062;2024-03-23T14:47:24;6.30;;;1.50;;
76610;SDS011;65503;48.534;9.062;2024-03-23T14:49:50;5.28;;;1.23;;
76610;SDS011;65503;48.534;9.062;2024-03-23T14:52:16;8.02;;;1.40;;
76610;SDS011;65503;48.534;9.062;2024-03-23T14:54:43;4.40;;;1.40;;
76610;SDS011;65503;48.534;9.062;2024-03-23T14:57:09;5.18;;;1.05;;
76610;SDS011;65503;48.534;9.062;2024-03-23T14:59:35;6.63;;;1.63;;
76610;SDS011;65503;48.534;9.062;2024-03-23T15:02:03;2.75;;;1.10;;
76610;SDS011;65503;48.534;9.062;2024-03-23T15:04:29;4.18;;;1.08;;
76610;SDS011;65503;48.534;9.062;2024-03-23T15:06:55;6.80;;;2.03;;
76610;SDS011;65503;48.534;9.062;2024-03-23T15:09:20;6.32;;;1.88;;
76610;SDS011;65503;48.534;9.062;2024-03-23T15:11:46;6.85;;;1.48;;
76610;SDS011;65503;48.534;9.062;2024-03-23T15:14:12;4.07;;;1.30;;
76610;SDS011;65503;48.534;9.062;2024-03-23T15:16:37;3.63;;;1.35;;
76610;SDS011;65503;48.534;9.062;2024-03-23T15:19:03;6.43;;;1.90;;
76610;SDS011;65503;48.534;9.062;2024-03-23T15:21:31;6.68;;;1.35;;
76610;SDS011;65503;48.534;9.062;2024-03-23T15:23:57;3.70;;;1.02;;
76610;SDS011;65503;48.534;9.062;2024-03-23T15:26:23;3.33;;;1.30;;
76610;SDS011;65503;48.534;9.062;2024-03-23T15:28:49;10.02;;;2.17;;
76610;SDS011;65503;48.534;9.062;2024-03-23T15:31:23;6.03;;;1.45;;
76610;SDS011;65503;48.534;9.062;2024-03-23T15:33:49;7.18;;;1.63;;
76610;SDS011;65503;48.534;9.062;2024-03-23T15:36:16;6.55;;;1.25;;
76610;SDS011;65503;48.534;9.062;2024-03-23T15:38:42;3.85;;;1.42;;
76610;SDS011;65503;48.534;9.062;2024-03-23T15:41:09;8.25;;;1.80;;
76610;SDS011;65503;48.534;9.062;2024-03-23T15:43:35;5.10;;;1.65;;
76610;SDS011;65503;48.534;9.062;2024-03-23T15:46:01;5.43;;;1.40;;
76610;SDS011;65503;48.534;9.062;2024-03-23T15:48:31;6.82;;;1.80;;
76610;SDS011;65503;48.534;9.062;2024-03-23T15:51:01;5.70;;;1.35;;